sensor_id;sensor_type;location;lat;lon;timestamp;P1;durP1;ratioP1;P2;durP2;ratioP2
49842;SDS011;55559;48.898;9.184;2023-12-20T00:00:36;5.68;;;2.20;;
49842;SDS011;55559;48.898;9.184;2023-12-20T00:03:03;3.78;;;1.10;;
49842;SDS011;55559;48.898;9.184;2023-12-20T00:05:31;4.93;;;1.25;;
49842;SDS011;55559;48.898;9.184;2023-12-20T00:07:58;5.18;;;1.40;;
49842;SDS011;55559;48.898;9.184;2023-12-20T00:10:26;13.75;;;5.10;;
49842;SDS011;55559;48.898;9.184;2023-12-20T00:12:54;3.85;;;1.25;;
49842;SDS011;55559;48.898;9.184;2023-12-20T00:15:21;2.88;;;0.95;;
49842;SDS011;55559;48.898;9.184;2023-12-20T00:17:48;3.33;;;1.00;;
49842;SDS011;55559;48.898;9.184;2023-12-20T00:20:15;6.00;;;1.45;;
49842;SDS011;55559;48.898;9.184;2023-12-20T00:22:42;3.40;;;1.27;;
49842;SDS011;55559;48.898;9.184;2023-12-20T00:25:09;3.40;;;1.52;;
49842;SDS011;55559;48.898;9.184;2023-12-20T00:27:36;2.30;;;1.00;;
49842;SDS011;55559;48.898;9.184;2023-12-20T00:30:06;2.60;;;1.00;;
49842;SDS011;55559;48.898;9.184;2023-12-20T00:32:33;1.75;;;0.70;;
49842;SDS011;55559;48.898;9.184;2023-12-20T00:35:00;3.38;;;1.13;;
49842;SDS011;55559;48.898;9.184;2023-12-20T00:37:27;5.10;;;1.40;;
49842;SDS011;55559;48.898;9.184;2023-12-20T00:39:54;1.55;;;0.80;;
49842;SDS011;55559;48.898;9.184;2023-12-20T00:42:21;2.55;;;1.13;;
49842;SDS011;55559;48.898;9.184;2023-12-20T00:44:48;3.30;;;1.25;;
49842;SDS011;55559;48.898;9.184;2023-12-20T00:47:17;2.88;;;1.55;;
49842;SDS011;55559;48.898;9.184;2023-12-20T00:49:45;4.88;;;2.10;;
49842;SDS011;55559;48.898;9.184;2023-12-20T00:52:12;5.35;;;2.10;;
49842;SDS011;55559;48.898;9.184;2023-12-20T00:54:39;5.75;;;2.35;;
49842;SDS011;55559;48.898;9.184;2023-12-20T00:57:06;6.18;;;1.45;;
49842;SDS011;55559;48.898;9.184;2023-12-20T00:59:33;3.53;;;1.67;;
49842;SDS011;55559;48.898;9.184;2023-12-20T01:02:00;3.60;;;1.75;;
49842;SDS011;55559;48.898;9.184;2023-12-20T01:04:31;4.68;;;1.98;;
49842;SDS011;55559;48.898;9.184;2023-12-20T01:06:58;3.25;;;1.70;;
49842;SDS011;55559;48.898;9.184;2023-12-20T01:09:25;4.05;;;1.35;;
49842;SDS011;55559;48.898;9.184;2023-12-20T01:11:53;4.85;;;1.85;;
49842;SDS011;55559;48.898;9.184;2023-12-20T01:14:20;4.10;;;1.65;;
49842;SDS011;55559;48.898;9.184;2023-12-20T01:16:47;3.20;;;1.65;;
49842;SDS011;55559;48.898;9.184;2023-12-20T01:19:14;3.78;;;1.30;;
49842;SDS011;55559;48.898;9.184;2023-12-20T01:21:43;2.97;;;1.20;;
49842;SDS011;55559;48.898;9.184;2023-12-20T01:24:10;3.15;;;1.50;;
49842;SDS011;55559;48.898;9.184;2023-12-20T01:26:37;5.05;;;2.75;;
49842;SDS011;55559;48.898;9.184;2023-12-20T01:29:04;9.73;;;3.05;;
49842;SDS011;55559;48.898;9.184;2023-12-20T01:31:31;8.65;;;3.30;;
49842;SDS011;55559;48.898;9.184;2023-12-20T01:33:58;9.18;;;3.42;;
49842;SDS011;55559;48.898;9.184;2023-12-20T01:36:25;8.02;;;3.25;;
49842;SDS011;55559;48.898;9.184;2023-12-20T01:38:54;7.57;;;3.30;;
49842;SDS011;55559;48.898;9.184;2023-12-20T01:41:21;5.47;;;2.75;;
49842;SDS011;55559;48.898;9.184;2023-12-20T01:43:48;6.15;;;2.30;;
49842;SDS011;55559;48.898;9.184;2023-12-20T01:46:15;4.38;;;1.98;;
49842;SDS011;55559;48.898;9.184;2023-12-20T01:48:42;8.73;;;3.13;;
49842;SDS011;55559;48.898;9.184;2023-12-20T01:51:09;3.20;;;1.73;;
49842;SDS011;55559;48.898;9.184;2023-12-20T01:53:38;3.40;;;2.08;;
49842;SDS011;55559;48.898;9.184;2023-12-20T01:56:07;6.68;;;1.92;;
49842;SDS011;55559;48.898;9.184;2023-12-20T01:58:35;5.40;;;2.67;;
49842;SDS011;55559;48.898;9.184;2023-12-20T02:01:05;3.22;;;1.40;;
49842;SDS011;55559;48.898;9.184;2023-12-20T02:03:32;8.95;;;2.25;;
49842;SDS011;55559;48.898;9.184;2023-12-20T02:06:00;5.15;;;2.00;;
49842;SDS011;55559;48.898;9.184;2023-12-20T02:08:27;2.35;;;1.42;;
49842;SDS011;55559;48.898;9.184;2023-12-20T02:10:54;6.43;;;2.35;;
49842;SDS011;55559;48.898;9.184;2023-12-20T02:13:23;3.53;;;1.92;;
49842;SDS011;55559;48.898;9.184;2023-12-20T02:15:52;1.83;;;1.23;;
49842;SDS011;55559;48.898;9.184;2023-12-20T02:18:19;5.72;;;0.90;;
49842;SDS011;55559;48.898;9.184;2023-12-20T02:20:46;2.17;;;0.73;;
49842;SDS011;55559;48.898;9.184;2023-12-20T02:23:14;2.55;;;0.80;;
49842;SDS011;55559;48.898;9.184;2023-12-20T02:25:42;1.95;;;0.80;;
49842;SDS011;55559;48.898;9.184;2023-12-20T02:28:09;1.67;;;0.60;;
49842;SDS011;55559;48.898;9.184;2023-12-20T02:30:36;1.60;;;0.60;;
49842;SDS011;55559;48.898;9.184;2023-12-20T02:33:03;2.63;;;0.70;;
49842;SDS011;55559;48.898;9.184;2023-12-20T02:35:30;0.90;;;0.50;;
49842;SDS011;55559;48.898;9.184;2023-12-20T02:37:57;0.82;;;0.43;;
49842;SDS011;55559;48.898;9.184;2023-12-20T02:40:26;0.95;;;0.40;;
49842;SDS011;55559;48.898;9.184;2023-12-20T02:42:53;0.50;;;0.30;;
49842;SDS011;55559;48.898;9.184;2023-12-20T02:45:20;1.35;;;0.30;;
49842;SDS011;55559;48.898;9.184;2023-12-20T02:47:47;0.57;;;0.20;;
49842;SDS011;55559;48.898;9.184;2023-12-20T02:50:14;0.20;;;0.15;;
49842;SDS011;55559;48.898;9.184;2023-12-20T02:52:42;0.10;;;0.10;;
49842;SDS011;55559;48.898;9.184;2023-12-20T02:55:09;0.40;;;0.20;;
49842;SDS011;55559;48.898;9.184;2023-12-20T02:57:38;1.85;;;0.17;;
49842;SDS011;55559;48.898;9.184;2023-12-20T03:00:07;0.20;;;0.10;;
49842;SDS011;55559;48.898;9.184;2023-12-20T03:02:34;0.20;;;0.10;;
49842;SDS011;55559;48.898;9.184;2023-12-20T03:05:02;0.30;;;0.10;;
49842;SDS011;55559;48.898;9.184;2023-12-20T03:07:29;3.42;;;0.15;;
49842;SDS011;55559;48.898;9.184;2023-12-20T03:09:56;0.10;;;0.00;;
49842;SDS011;55559;48.898;9.184;2023-12-20T03:12:23;0.30;;;0.10;;
49842;SDS011;55559;48.898;9.184;2023-12-20T03:14:51;0.32;;;0.10;;
49842;SDS011;55559;48.898;9.184;2023-12-20T03:17:18;1.45;;;0.10;;
49842;SDS011;55559;48.898;9.184;2023-12-20T03:19:46;0.45;;;0.10;;
49842;SDS011;55559;48.898;9.184;2023-12-20T03:22:13;0.10;;;0.10;;
49842;SDS011;55559;48.898;9.184;2023-12-20T03:24:40;0.25;;;0.10;;
49842;SDS011;55559;48.898;9.184;2023-12-20T03:27:07;0.47;;;0.10;;
49842;SDS011;55559;48.898;9.184;2023-12-20T03:29:34;0.88;;;0.10;;
49842;SDS011;55559;48.898;9.184;2023-12-20T03:32:03;0.10;;;0.00;;
49842;SDS011;55559;48.898;9.184;2023-12-20T03:34:30;0.17;;;0.10;;
49842;SDS011;55559;48.898;9.184;2023-12-20T03:36:57;2.63;;;0.00;;
49842;SDS011;55559;48.898;9.184;2023-12-20T03:39:24;1.33;;;0.10;;
49842;SDS011;55559;48.898;9.184;2023-12-20T03:41:51;1.60;;;0.03;;
49842;SDS011;55559;48.898;9.184;2023-12-20T03:44:18;0.20;;;0.10;;
49842;SDS011;55559;48.898;9.184;2023-12-20T03:46:45;0.35;;;0.03;;
49842;SDS011;55559;48.898;9.184;2023-12-20T03:49:16;0.22;;;0.10;;
49842;SDS011;55559;48.898;9.184;2023-12-20T03:51:43;0.45;;;0.10;;
49842;SDS011;55559;48.898;9.184;2023-12-20T03:54:10;0.13;;;0.10;;
49842;SDS011;55559;48.898;9.184;2023-12-20T03:56:37;0.30;;;0.10;;
49842;SDS011;55559;48.898;9.184;2023-12-20T03:59:04;0.22;;;0.10;;
49842;SDS011;55559;48.898;9.184;2023-12-20T04:01:31;0.20;;;0.00;;
49842;SDS011;55559;48.898;9.184;2023-12-20T04:03:58;0.20;;;0.10;;
49842;SDS011;55559;48.898;9.184;2023-12-20T04:06:26;3.28;;;0.08;;
49842;SDS011;55559;48.898;9.184;2023-12-20T04:08:54;0.10;;;0.00;;
49842;SDS011;55559;48.898;9.184;2023-12-20T04:11:21;0.60;;;0.10;;
49842;SDS011;55559;48.898;9.184;2023-12-20T04:13:48;2.17;;;0.10;;
49842;SDS011;55559;48.898;9.184;2023-12-20T04:16:15;0.30;;;0.10;;
49842;SDS011;55559;48.898;9.184;2023-12-20T04:18:42;0.52;;;0.10;;
49842;SDS011;55559;48.898;9.184;2023-12-20T04:21:09;0.40;;;0.10;;
49842;SDS011;55559;48.898;9.184;2023-12-20T04:23:37;0.30;;;0.10;;
49842;SDS011;55559;48.898;9.184;2023-12-20T04:26:05;0.03;;;0.00;;
49842;SDS011;55559;48.898;9.184;2023-12-20T04:28:32;0.10;;;0.10;;
49842;SDS011;55559;48.898;9.184;2023-12-20T04:34:34;0.20;;;0.20;;
49842;SDS011;55559;48.898;9.184;2023-12-20T04:37:01;0.28;;;0.10;;
49842;SDS011;55559;48.898;9.184;2023-12-20T04:39:30;0.75;;;0.20;;
49842;SDS011;55559;48.898;9.184;2023-12-20T04:41:57;0.20;;;0.10;;
49842;SDS011;55559;48.898;9.184;2023-12-20T04:44:24;0.88;;;0.10;;
49842;SDS011;55559;48.898;9.184;2023-12-20T04:46:52;2.78;;;0.10;;
49842;SDS011;55559;48.898;9.184;2023-12-20T04:49:19;1.55;;;0.10;;
49842;SDS011;55559;48.898;9.184;2023-12-20T04:51:46;0.90;;;0.20;;
49842;SDS011;55559;48.898;9.184;2023-12-20T04:54:13;0.10;;;0.10;;
49842;SDS011;55559;48.898;9.184;2023-12-20T04:56:42;3.33;;;0.20;;
49842;SDS011;55559;48.898;9.184;2023-12-20T04:59:09;0.57;;;0.20;;
49842;SDS011;55559;48.898;9.184;2023-12-20T05:01:36;0.57;;;0.10;;
49842;SDS011;55559;48.898;9.184;2023-12-20T05:04:03;0.30;;;0.10;;
49842;SDS011;55559;48.898;9.184;2023-12-20T05:06:30;0.32;;;0.20;;
49842;SDS011;55559;48.898;9.184;2023-12-20T05:08:57;0.60;;;0.20;;
49842;SDS011;55559;48.898;9.184;2023-12-20T05:11:24;0.45;;;0.20;;
49842;SDS011;55559;48.898;9.184;2023-12-20T05:13:52;0.40;;;0.32;;
49842;SDS011;55559;48.898;9.184;2023-12-20T05:16:20;1.27;;;0.10;;
49842;SDS011;55559;48.898;9.184;2023-12-20T05:18:47;0.55;;;0.10;;
49842;SDS011;55559;48.898;9.184;2023-12-20T05:21:15;0.30;;;0.10;;
49842;SDS011;55559;48.898;9.184;2023-12-20T05:23:42;3.60;;;0.20;;
49842;SDS011;55559;48.898;9.184;2023-12-20T05:26:09;0.50;;;0.20;;
49842;SDS011;55559;48.898;9.184;2023-12-20T05:28:36;6.30;;;0.20;;
49842;SDS011;55559;48.898;9.184;2023-12-20T05:31:04;1.48;;;0.32;;
49842;SDS011;55559;48.898;9.184;2023-12-20T05:33:32;1.33;;;0.30;;
49842;SDS011;55559;48.898;9.184;2023-12-20T05:35:59;1.42;;;0.40;;
49842;SDS011;55559;48.898;9.184;2023-12-20T05:38:26;1.55;;;0.50;;
49842;SDS011;55559;48.898;9.184;2023-12-20T05:40:53;1.13;;;0.40;;
49842;SDS011;55559;48.898;9.184;2023-12-20T05:43:20;1.20;;;0.60;;
49842;SDS011;55559;48.898;9.184;2023-12-20T05:45:47;1.17;;;0.55;;
49842;SDS011;55559;48.898;9.184;2023-12-20T05:48:16;1.23;;;0.68;;
49842;SDS011;55559;48.898;9.184;2023-12-20T05:50:43;0.90;;;0.60;;
49842;SDS011;55559;48.898;9.184;2023-12-20T05:53:10;3.67;;;0.80;;
49842;SDS011;55559;48.898;9.184;2023-12-20T05:55:37;0.93;;;0.60;;
49842;SDS011;55559;48.898;9.184;2023-12-20T05:58:04;1.70;;;0.70;;
49842;SDS011;55559;48.898;9.184;2023-12-20T06:00:31;3.58;;;0.70;;
49842;SDS011;55559;48.898;9.184;2023-12-20T06:02:58;0.90;;;0.55;;
49842;SDS011;55559;48.898;9.184;2023-12-20T06:05:27;2.35;;;0.60;;
49842;SDS011;55559;48.898;9.184;2023-12-20T06:07:54;3.38;;;0.57;;
49842;SDS011;55559;48.898;9.184;2023-12-20T06:10:23;1.30;;;0.60;;
49842;SDS011;55559;48.898;9.184;2023-12-20T06:12:50;2.88;;;0.80;;
49842;SDS011;55559;48.898;9.184;2023-12-20T06:15:17;2.40;;;0.65;;
49842;SDS011;55559;48.898;9.184;2023-12-20T06:17:44;4.25;;;0.63;;
49842;SDS011;55559;48.898;9.184;2023-12-20T06:20:12;2.03;;;0.70;;
49842;SDS011;55559;48.898;9.184;2023-12-20T06:22:40;1.30;;;0.70;;
49842;SDS011;55559;48.898;9.184;2023-12-20T06:25:08;1.42;;;0.80;;
49842;SDS011;55559;48.898;9.184;2023-12-20T06:27:35;3.97;;;0.70;;
49842;SDS011;55559;48.898;9.184;2023-12-20T06:30:02;4.22;;;0.60;;
49842;SDS011;55559;48.898;9.184;2023-12-20T06:32:29;0.82;;;0.55;;
49842;SDS011;55559;48.898;9.184;2023-12-20T06:34:57;1.00;;;0.50;;
49842;SDS011;55559;48.898;9.184;2023-12-20T06:37:24;1.20;;;0.70;;
49842;SDS011;55559;48.898;9.184;2023-12-20T06:39:52;2.13;;;0.90;;
49842;SDS011;55559;48.898;9.184;2023-12-20T06:42:19;2.10;;;0.90;;
49842;SDS011;55559;48.898;9.184;2023-12-20T06:44:46;2.65;;;1.00;;
49842;SDS011;55559;48.898;9.184;2023-12-20T06:47:13;2.67;;;0.90;;
49842;SDS011;55559;48.898;9.184;2023-12-20T06:49:40;1.80;;;1.25;;
49842;SDS011;55559;48.898;9.184;2023-12-20T06:52:07;2.58;;;1.20;;
49842;SDS011;55559;48.898;9.184;2023-12-20T06:54:35;2.13;;;1.17;;
49842;SDS011;55559;48.898;9.184;2023-12-20T06:57:03;1.60;;;0.90;;
49842;SDS011;55559;48.898;9.184;2023-12-20T06:59:30;1.35;;;1.00;;
49842;SDS011;55559;48.898;9.184;2023-12-20T07:01:57;2.67;;;1.25;;
49842;SDS011;55559;48.898;9.184;2023-12-20T07:04:24;4.22;;;1.10;;
49842;SDS011;55559;48.898;9.184;2023-12-20T07:06:51;2.17;;;1.27;;
49842;SDS011;55559;48.898;9.184;2023-12-20T07:09:22;2.05;;;1.50;;
49842;SDS011;55559;48.898;9.184;2023-12-20T07:11:49;2.10;;;1.50;;
49842;SDS011;55559;48.898;9.184;2023-12-20T07:14:17;2.47;;;1.30;;
49842;SDS011;55559;48.898;9.184;2023-12-20T07:16:44;2.13;;;1.60;;
49842;SDS011;55559;48.898;9.184;2023-12-20T07:19:12;2.33;;;2.13;;
49842;SDS011;55559;48.898;9.184;2023-12-20T07:21:38;2.17;;;1.98;;
49842;SDS011;55559;48.898;9.184;2023-12-20T07:24:06;3.75;;;3.45;;
49842;SDS011;55559;48.898;9.184;2023-12-20T07:26:34;3.42;;;2.80;;
49842;SDS011;55559;48.898;9.184;2023-12-20T07:29:03;5.05;;;2.47;;
49842;SDS011;55559;48.898;9.184;2023-12-20T07:31:31;2.67;;;2.47;;
49842;SDS011;55559;48.898;9.184;2023-12-20T07:33:59;3.28;;;2.97;;
49842;SDS011;55559;48.898;9.184;2023-12-20T07:36:26;3.72;;;2.58;;
49842;SDS011;55559;48.898;9.184;2023-12-20T07:38:53;5.25;;;2.47;;
49842;SDS011;55559;48.898;9.184;2023-12-20T07:41:20;1.50;;;1.25;;
49842;SDS011;55559;48.898;9.184;2023-12-20T07:43:49;2.65;;;2.05;;
49842;SDS011;55559;48.898;9.184;2023-12-20T07:46:16;2.28;;;1.42;;
49842;SDS011;55559;48.898;9.184;2023-12-20T07:48:45;2.03;;;1.40;;
49842;SDS011;55559;48.898;9.184;2023-12-20T07:51:12;1.98;;;1.52;;
49842;SDS011;55559;48.898;9.184;2023-12-20T07:53:39;1.95;;;0.98;;
49842;SDS011;55559;48.898;9.184;2023-12-20T07:56:15;1.77;;;1.30;;
49842;SDS011;55559;48.898;9.184;2023-12-20T07:58:42;5.18;;;1.60;;
49842;SDS011;55559;48.898;9.184;2023-12-20T08:01:10;4.22;;;1.00;;
49842;SDS011;55559;48.898;9.184;2023-12-20T08:03:37;2.60;;;1.50;;
49842;SDS011;55559;48.898;9.184;2023-12-20T08:06:05;3.80;;;1.75;;
49842;SDS011;55559;48.898;9.184;2023-12-20T08:08:32;2.05;;;1.20;;
49842;SDS011;55559;48.898;9.184;2023-12-20T08:11:00;6.55;;;1.58;;
49842;SDS011;55559;48.898;9.184;2023-12-20T08:13:28;4.88;;;1.70;;
49842;SDS011;55559;48.898;9.184;2023-12-20T08:15:55;2.10;;;1.10;;
49842;SDS011;55559;48.898;9.184;2023-12-20T08:18:22;2.75;;;1.70;;
49842;SDS011;55559;48.898;9.184;2023-12-20T08:20:49;2.05;;;1.45;;
49842;SDS011;55559;48.898;9.184;2023-12-20T08:23:19;1.92;;;0.77;;
49842;SDS011;55559;48.898;9.184;2023-12-20T08:25:47;3.72;;;1.27;;
49842;SDS011;55559;48.898;9.184;2023-12-20T08:28:14;3.20;;;1.50;;
49842;SDS011;55559;48.898;9.184;2023-12-20T08:30:41;5.20;;;1.45;;
49842;SDS011;55559;48.898;9.184;2023-12-20T08:33:09;4.53;;;1.58;;
49842;SDS011;55559;48.898;9.184;2023-12-20T08:35:38;2.63;;;1.05;;
49842;SDS011;55559;48.898;9.184;2023-12-20T08:38:05;3.45;;;1.33;;
49842;SDS011;55559;48.898;9.184;2023-12-20T08:40:36;7.00;;;1.65;;
49842;SDS011;55559;48.898;9.184;2023-12-20T08:43:03;3.45;;;1.40;;
49842;SDS011;55559;48.898;9.184;2023-12-20T08:45:30;9.38;;;1.55;;
49842;SDS011;55559;48.898;9.184;2023-12-20T08:47:57;4.38;;;1.63;;
49842;SDS011;55559;48.898;9.184;2023-12-20T08:50:25;3.33;;;1.23;;
49842;SDS011;55559;48.898;9.184;2023-12-20T08:52:52;3.53;;;1.23;;
49842;SDS011;55559;48.898;9.184;2023-12-20T08:55:19;4.38;;;1.50;;
49842;SDS011;55559;48.898;9.184;2023-12-20T08:57:48;3.65;;;1.40;;
49842;SDS011;55559;48.898;9.184;2023-12-20T09:00:16;7.00;;;1.85;;
49842;SDS011;55559;48.898;9.184;2023-12-20T09:02:45;5.53;;;1.67;;
49842;SDS011;55559;48.898;9.184;2023-12-20T09:05:12;3.35;;;1.40;;
49842;SDS011;55559;48.898;9.184;2023-12-20T09:07:40;2.97;;;1.50;;
49842;SDS011;55559;48.898;9.184;2023-12-20T09:10:07;3.53;;;1.95;;
49842;SDS011;55559;48.898;9.184;2023-12-20T09:12:34;12.05;;;7.28;;
49842;SDS011;55559;48.898;9.184;2023-12-20T09:15:05;6.22;;;2.90;;
49842;SDS011;55559;48.898;9.184;2023-12-20T09:17:32;5.95;;;1.45;;
49842;SDS011;55559;48.898;9.184;2023-12-20T09:19:59;4.25;;;1.52;;
49842;SDS011;55559;48.898;9.184;2023-12-20T09:22:26;4.28;;;1.05;;
49842;SDS011;55559;48.898;9.184;2023-12-20T09:24:52;4.78;;;1.52;;
49842;SDS011;55559;48.898;9.184;2023-12-20T09:27:19;9.35;;;2.95;;
49842;SDS011;55559;48.898;9.184;2023-12-20T09:29:46;2.05;;;1.45;;
49842;SDS011;55559;48.898;9.184;2023-12-20T09:32:15;6.07;;;1.33;;
49842;SDS011;55559;48.898;9.184;2023-12-20T09:34:42;5.15;;;0.75;;
49842;SDS011;55559;48.898;9.184;2023-12-20T09:37:09;6.60;;;1.00;;
49842;SDS011;55559;48.898;9.184;2023-12-20T09:39:37;4.72;;;0.75;;
49842;SDS011;55559;48.898;9.184;2023-12-20T09:42:04;9.15;;;1.10;;
49842;SDS011;55559;48.898;9.184;2023-12-20T09:44:32;7.32;;;1.15;;
49842;SDS011;55559;48.898;9.184;2023-12-20T09:47:01;6.45;;;1.05;;
49842;SDS011;55559;48.898;9.184;2023-12-20T09:49:30;4.57;;;1.05;;
49842;SDS011;55559;48.898;9.184;2023-12-20T09:51:57;8.07;;;0.70;;
49842;SDS011;55559;48.898;9.184;2023-12-20T09:54:24;6.68;;;1.13;;
49842;SDS011;55559;48.898;9.184;2023-12-20T09:56:52;14.98;;;2.13;;
49842;SDS011;55559;48.898;9.184;2023-12-20T09:59:19;8.55;;;0.60;;
49842;SDS011;55559;48.898;9.184;2023-12-20T10:01:46;10.73;;;0.80;;
49842;SDS011;55559;48.898;9.184;2023-12-20T10:04:13;7.93;;;0.77;;
49842;SDS011;55559;48.898;9.184;2023-12-20T10:06:42;4.78;;;0.65;;
49842;SDS011;55559;48.898;9.184;2023-12-20T10:09:09;7.30;;;0.50;;
49842;SDS011;55559;48.898;9.184;2023-12-20T10:11:36;4.18;;;0.70;;
49842;SDS011;55559;48.898;9.184;2023-12-20T10:14:04;12.13;;;0.50;;
49842;SDS011;55559;48.898;9.184;2023-12-20T10:16:31;6.28;;;0.40;;
49842;SDS011;55559;48.898;9.184;2023-12-20T10:18:59;6.05;;;1.13;;
49842;SDS011;55559;48.898;9.184;2023-12-20T10:21:26;6.03;;;0.40;;
49842;SDS011;55559;48.898;9.184;2023-12-20T10:23:55;2.45;;;0.50;;
49842;SDS011;55559;48.898;9.184;2023-12-20T10:26:22;5.30;;;0.43;;
49842;SDS011;55559;48.898;9.184;2023-12-20T10:28:50;4.88;;;0.43;;
49842;SDS011;55559;48.898;9.184;2023-12-20T10:31:26;5.65;;;0.73;;
49842;SDS011;55559;48.898;9.184;2023-12-20T10:33:53;3.72;;;0.60;;
49842;SDS011;55559;48.898;9.184;2023-12-20T10:36:20;19.08;;;8.50;;
49842;SDS011;55559;48.898;9.184;2023-12-20T10:38:48;14.30;;;1.52;;
49842;SDS011;55559;48.898;9.184;2023-12-20T10:41:19;9.35;;;0.40;;
49842;SDS011;55559;48.898;9.184;2023-12-20T10:43:49;5.28;;;0.32;;
49842;SDS011;55559;48.898;9.184;2023-12-20T10:46:17;4.00;;;0.50;;
49842;SDS011;55559;48.898;9.184;2023-12-20T10:48:45;3.35;;;0.50;;
49842;SDS011;55559;48.898;9.184;2023-12-20T10:51:14;7.05;;;0.60;;
49842;SDS011;55559;48.898;9.184;2023-12-20T10:53:44;6.15;;;0.43;;
49842;SDS011;55559;48.898;9.184;2023-12-20T10:56:12;7.93;;;0.63;;
49842;SDS011;55559;48.898;9.184;2023-12-20T10:58:41;4.50;;;0.40;;
49842;SDS011;55559;48.898;9.184;2023-12-20T11:01:09;7.95;;;0.50;;
49842;SDS011;55559;48.898;9.184;2023-12-20T11:03:36;13.25;;;0.40;;
49842;SDS011;55559;48.898;9.184;2023-12-20T11:06:05;7.55;;;0.40;;
49842;SDS011;55559;48.898;9.184;2023-12-20T11:08:36;5.35;;;0.50;;
49842;SDS011;55559;48.898;9.184;2023-12-20T11:11:06;11.63;;;0.60;;
49842;SDS011;55559;48.898;9.184;2023-12-20T11:13:37;6.35;;;0.40;;
49842;SDS011;55559;48.898;9.184;2023-12-20T11:16:08;11.00;;;0.40;;
49842;SDS011;55559;48.898;9.184;2023-12-20T11:18:35;4.88;;;0.60;;
49842;SDS011;55559;48.898;9.184;2023-12-20T11:21:04;10.02;;;0.30;;
49842;SDS011;55559;48.898;9.184;2023-12-20T11:23:32;5.10;;;0.40;;
49842;SDS011;55559;48.898;9.184;2023-12-20T11:26:00;8.40;;;0.40;;
49842;SDS011;55559;48.898;9.184;2023-12-20T11:28:28;13.85;;;1.25;;
49842;SDS011;55559;48.898;9.184;2023-12-20T11:30:55;5.10;;;0.50;;
49842;SDS011;55559;48.898;9.184;2023-12-20T11:33:26;5.18;;;0.63;;
49842;SDS011;55559;48.898;9.184;2023-12-20T11:35:55;6.18;;;1.00;;
49842;SDS011;55559;48.898;9.184;2023-12-20T11:38:22;14.05;;;2.97;;
49842;SDS011;55559;48.898;9.184;2023-12-20T11:40:49;9.88;;;0.73;;
49842;SDS011;55559;48.898;9.184;2023-12-20T11:43:29;10.88;;;0.60;;
49842;SDS011;55559;48.898;9.184;2023-12-20T11:45:56;8.75;;;1.27;;
49842;SDS011;55559;48.898;9.184;2023-12-20T11:48:31;9.27;;;0.60;;
49842;SDS011;55559;48.898;9.184;2023-12-20T11:50:58;8.43;;;0.70;;
49842;SDS011;55559;48.898;9.184;2023-12-20T11:53:25;11.18;;;1.02;;
49842;SDS011;55559;48.898;9.184;2023-12-20T11:55:53;5.22;;;0.50;;
49842;SDS011;55559;48.898;9.184;2023-12-20T11:58:20;6.13;;;0.65;;
49842;SDS011;55559;48.898;9.184;2023-12-20T12:00:48;10.50;;;0.80;;
49842;SDS011;55559;48.898;9.184;2023-12-20T12:03:15;5.30;;;0.40;;
49842;SDS011;55559;48.898;9.184;2023-12-20T12:05:43;6.70;;;0.50;;
49842;SDS011;55559;48.898;9.184;2023-12-20T12:08:13;7.10;;;0.60;;
49842;SDS011;55559;48.898;9.184;2023-12-20T12:10:40;7.75;;;0.40;;
49842;SDS011;55559;48.898;9.184;2023-12-20T12:13:07;10.20;;;0.65;;
49842;SDS011;55559;48.898;9.184;2023-12-20T12:15:34;5.85;;;0.60;;
49842;SDS011;55559;48.898;9.184;2023-12-20T12:18:01;38.60;;;12.95;;
49842;SDS011;55559;48.898;9.184;2023-12-20T12:20:29;8.18;;;0.50;;
49842;SDS011;55559;48.898;9.184;2023-12-20T12:23:01;9.93;;;1.10;;
49842;SDS011;55559;48.898;9.184;2023-12-20T12:25:28;6.78;;;0.50;;
49842;SDS011;55559;48.898;9.184;2023-12-20T12:27:56;5.68;;;1.05;;
49842;SDS011;55559;48.898;9.184;2023-12-20T12:30:23;7.00;;;0.60;;
49842;SDS011;55559;48.898;9.184;2023-12-20T12:32:50;10.65;;;0.63;;
49842;SDS011;55559;48.898;9.184;2023-12-20T12:35:18;9.40;;;0.50;;
49842;SDS011;55559;48.898;9.184;2023-12-20T12:37:45;8.23;;;0.70;;
49842;SDS011;55559;48.898;9.184;2023-12-20T12:40:14;7.15;;;0.85;;
49842;SDS011;55559;48.898;9.184;2023-12-20T12:42:42;5.00;;;1.13;;
49842;SDS011;55559;48.898;9.184;2023-12-20T12:45:09;10.68;;;0.50;;
49842;SDS011;55559;48.898;9.184;2023-12-20T12:47:37;4.75;;;0.45;;
49842;SDS011;55559;48.898;9.184;2023-12-20T12:50:04;9.75;;;0.60;;
49842;SDS011;55559;48.898;9.184;2023-12-20T12:52:31;6.38;;;0.45;;
49842;SDS011;55559;48.898;9.184;2023-12-20T12:54:58;9.55;;;0.80;;
49842;SDS011;55559;48.898;9.184;2023-12-20T12:57:27;10.68;;;1.40;;
49842;SDS011;55559;48.898;9.184;2023-12-20T12:59:54;9.55;;;1.42;;
49842;SDS011;55559;48.898;9.184;2023-12-20T13:02:21;5.35;;;1.15;;
49842;SDS011;55559;48.898;9.184;2023-12-20T13:04:48;8.93;;;2.13;;
49842;SDS011;55559;48.898;9.184;2023-12-20T13:07:14;6.90;;;0.40;;
49842;SDS011;55559;48.898;9.184;2023-12-20T13:09:42;8.02;;;0.70;;
49842;SDS011;55559;48.898;9.184;2023-12-20T13:12:08;3.83;;;0.50;;
49842;SDS011;55559;48.898;9.184;2023-12-20T13:14:37;3.30;;;0.38;;
49842;SDS011;55559;48.898;9.184;2023-12-20T13:17:04;4.47;;;0.40;;
49842;SDS011;55559;48.898;9.184;2023-12-20T13:19:31;6.50;;;0.30;;
49842;SDS011;55559;48.898;9.184;2023-12-20T13:21:58;7.72;;;0.50;;
49842;SDS011;55559;48.898;9.184;2023-12-20T13:24:26;61.13;;;21.63;;
49842;SDS011;55559;48.898;9.184;2023-12-20T13:26:53;134.35;;;44.22;;
49842;SDS011;55559;48.898;9.184;2023-12-20T13:29:20;115.63;;;34.42;;
49842;SDS011;55559;48.898;9.184;2023-12-20T13:31:48;185.93;;;62.10;;
49842;SDS011;55559;48.898;9.184;2023-12-20T13:34:15;78.40;;;21.67;;
49842;SDS011;55559;48.898;9.184;2023-12-20T13:36:43;11.50;;;1.75;;
49842;SDS011;55559;48.898;9.184;2023-12-20T13:39:13;7.28;;;1.65;;
49842;SDS011;55559;48.898;9.184;2023-12-20T13:41:40;2.92;;;0.55;;
49842;SDS011;55559;48.898;9.184;2023-12-20T13:44:07;5.30;;;0.40;;
49842;SDS011;55559;48.898;9.184;2023-12-20T13:46:34;4.18;;;0.55;;
49842;SDS011;55559;48.898;9.184;2023-12-20T13:49:04;1.65;;;0.30;;
49842;SDS011;55559;48.898;9.184;2023-12-20T13:51:31;6.82;;;1.00;;
49842;SDS011;55559;48.898;9.184;2023-12-20T13:53:58;8.43;;;0.43;;
49842;SDS011;55559;48.898;9.184;2023-12-20T13:56:25;11.57;;;0.65;;
49842;SDS011;55559;48.898;9.184;2023-12-20T13:58:53;5.53;;;0.40;;
49842;SDS011;55559;48.898;9.184;2023-12-20T14:01:20;7.18;;;0.68;;
49842;SDS011;55559;48.898;9.184;2023-12-20T14:03:47;4.75;;;0.40;;
49842;SDS011;55559;48.898;9.184;2023-12-20T14:06:15;5.78;;;0.40;;
49842;SDS011;55559;48.898;9.184;2023-12-20T14:08:43;5.78;;;0.57;;
49842;SDS011;55559;48.898;9.184;2023-12-20T14:11:10;11.52;;;1.30;;
49842;SDS011;55559;48.898;9.184;2023-12-20T14:13:38;9.57;;;1.00;;
49842;SDS011;55559;48.898;9.184;2023-12-20T14:16:05;7.55;;;0.50;;
49842;SDS011;55559;48.898;9.184;2023-12-20T14:18:32;6.80;;;0.40;;
49842;SDS011;55559;48.898;9.184;2023-12-20T14:20:59;5.97;;;0.43;;
49842;SDS011;55559;48.898;9.184;2023-12-20T14:23:27;9.50;;;0.70;;
49842;SDS011;55559;48.898;9.184;2023-12-20T14:25:54;4.70;;;0.50;;
49842;SDS011;55559;48.898;9.184;2023-12-20T14:28:24;5.63;;;1.25;;
49842;SDS011;55559;48.898;9.184;2023-12-20T14:30:50;10.70;;;0.93;;
49842;SDS011;55559;48.898;9.184;2023-12-20T14:33:18;8.07;;;0.47;;
49842;SDS011;55559;48.898;9.184;2023-12-20T14:35:47;13.68;;;0.60;;
49842;SDS011;55559;48.898;9.184;2023-12-20T14:38:14;8.82;;;0.68;;
49842;SDS011;55559;48.898;9.184;2023-12-20T14:40:42;7.72;;;1.10;;
49842;SDS011;55559;48.898;9.184;2023-12-20T14:43:09;11.05;;;0.80;;
49842;SDS011;55559;48.898;9.184;2023-12-20T14:45:37;7.00;;;0.43;;
49842;SDS011;55559;48.898;9.184;2023-12-20T14:48:04;8.05;;;0.68;;
49842;SDS011;55559;48.898;9.184;2023-12-20T14:50:31;9.88;;;0.73;;